Hauptseite
METAR-TAF:

METAR-TAF

Flughäfen :

Passo Rolle, Italien

Breite: 46-18N, Länge: 011-47E, Höhe: 2004 m

Beobachtung

Neuester Wetterbericht von vor 2 Stunden und 59 Minuten, um 20:55 UTC
Wind 3 kt aus Nord/Nordwest
Temperatur -7°C
Luftfeuchtigkeit 57%
Luftdruck 993 hPa
Sichtweite 10 km oder mehr
keine Wolken unter 1500 m und keine Kumulonimbus oder Gewitterwolken

METAR: LIVR 222055Z 34003KT CAVOK M07/M14 Q0993 RMK SCT SCT060 MON LIB VIS MIN 9999

Zeit: 00:54 (23:54 UTC)


TAF: fehlend

Wetterbeobachtungen und Prognosen von mehr als 4000 Flughäfen (METAR und TAF Bericht).

Die verfügbaren Stationen werden durch gelbe und rote Markierungen auf der Karte dargestellt.

Führen Sie die Maus auf sie, um den Namen der Station zu sehen.

Darauf klicken, um die Beobachtung von Wetterbeobachtungen und Prognosen zu sehen.

Um die Karte zu ändern : klicken Sie auf den grünen Tasten mit einem schwarzen Kreuz Zum Vergrößern, auf den grünen Button mit einem Gedankenstrich zu verkleinern, oder auf die grünen Pfeile für benachbarte Karten.


METAR-TAF: